sensor_id;sensor_type;location;lat;lon;timestamp;pressure;altitude;pressure_sealevel;temperature
76394;BMP180;65216;51.090;-115.352;2024-02-15T00:00:03;87042.40;;;23.70
76394;BMP180;65216;51.090;-115.352;2024-02-15T00:02:30;87050.40;;;23.62
76394;BMP180;65216;51.090;-115.352;2024-02-15T00:04:57;87055.20;;;23.60
76394;BMP180;65216;51.090;-115.352;2024-02-15T00:07:23;87064.80;;;23.60
76394;BMP180;65216;51.090;-115.352;2024-02-15T00:09:50;87067.20;;;23.60
76394;BMP180;65216;51.090;-115.352;2024-02-15T00:12:17;87049.60;;;23.60
76394;BMP180;65216;51.090;-115.352;2024-02-15T00:14:45;87054.40;;;23.60
76394;BMP180;65216;51.090;-115.352;2024-02-15T00:17:13;87075.20;;;23.60
76394;BMP180;65216;51.090;-115.352;2024-02-15T00:19:42;87053.80;;;23.60
76394;BMP180;65216;51.090;-115.352;2024-02-15T00:22:09;87059.60;;;23.58
76394;BMP180;65216;51.090;-115.352;2024-02-15T00:24:42;87063.00;;;23.60
76394;BMP180;65216;51.090;-115.352;2024-02-15T00:27:11;87074.00;;;23.58
76394;BMP180;65216;51.090;-115.352;2024-02-15T00:29:38;87060.60;;;23.50
76394;BMP180;65216;51.090;-115.352;2024-02-15T00:32:07;87085.80;;;23.50
76394;BMP180;65216;51.090;-115.352;2024-02-15T00:34:37;87065.60;;;23.50
76394;BMP180;65216;51.090;-115.352;2024-02-15T00:37:10;87075.40;;;23.44
76394;BMP180;65216;51.090;-115.352;2024-02-15T00:39:39;87088.60;;;23.40
76394;BMP180;65216;51.090;-115.352;2024-02-15T00:42:05;87089.20;;;23.40
76394;BMP180;65216;51.090;-115.352;2024-02-15T00:44:35;87077.20;;;23.30
76394;BMP180;65216;51.090;-115.352;2024-02-15T00:47:03;87085.80;;;23.30
76394;BMP180;65216;51.090;-115.352;2024-02-15T00:49:31;87093.60;;;23.30
76394;BMP180;65216;51.090;-115.352;2024-02-15T00:51:59;87102.40;;;23.30
76394;BMP180;65216;51.090;-115.352;2024-02-15T00:54:25;87085.00;;;23.20
76394;BMP180;65216;51.090;-115.352;2024-02-15T00:56:55;87088.00;;;23.20
76394;BMP180;65216;51.090;-115.352;2024-02-15T00:59:24;87090.60;;;23.20
76394;BMP180;65216;51.090;-115.352;2024-02-15T01:01:53;87097.80;;;23.14
76394;BMP180;65216;51.090;-115.352;2024-02-15T01:04:20;87092.60;;;23.10
76394;BMP180;65216;51.090;-115.352;2024-02-15T01:06:47;87096.40;;;23.10
76394;BMP180;65216;51.090;-115.352;2024-02-15T01:09:18;87102.60;;;23.00
76394;BMP180;65216;51.090;-115.352;2024-02-15T01:11:45;87093.60;;;23.00
76394;BMP180;65216;51.090;-115.352;2024-02-15T01:14:12;87105.60;;;23.00
76394;BMP180;65216;51.090;-115.352;2024-02-15T01:16:39;87097.60;;;23.00
76394;BMP180;65216;51.090;-115.352;2024-02-15T01:19:06;87101.40;;;23.00
76394;BMP180;65216;51.090;-115.352;2024-02-15T01:21:33;87114.20;;;22.90
76394;BMP180;65216;51.090;-115.352;2024-02-15T01:24:00;87115.20;;;22.92
76394;BMP180;65216;51.090;-115.352;2024-02-15T01:26:27;87111.00;;;22.90
76394;BMP180;65216;51.090;-115.352;2024-02-15T01:28:54;87141.20;;;22.90
76394;BMP180;65216;51.090;-115.352;2024-02-15T01:31:24;87125.20;;;22.90
76394;BMP180;65216;51.090;-115.352;2024-02-15T01:33:51;87133.40;;;22.90
76394;BMP180;65216;51.090;-115.352;2024-02-15T01:36:18;87122.60;;;22.90
76394;BMP180;65216;51.090;-115.352;2024-02-15T01:38:49;87130.40;;;22.90
76394;BMP180;65216;51.090;-115.352;2024-02-15T01:41:16;87132.20;;;22.90
76394;BMP180;65216;51.090;-115.352;2024-02-15T01:43:46;87141.20;;;22.90
76394;BMP180;65216;51.090;-115.352;2024-02-15T01:46:15;87144.80;;;22.82
76394;BMP180;65216;51.090;-115.352;2024-02-15T01:48:43;87149.00;;;22.80
76394;BMP180;65216;51.090;-115.352;2024-02-15T01:51:14;87146.20;;;22.80
76394;BMP180;65216;51.090;-115.352;2024-02-15T01:53:43;87143.60;;;22.80
76394;BMP180;65216;51.090;-115.352;2024-02-15T01:56:14;87139.60;;;22.80
76394;BMP180;65216;51.090;-115.352;2024-02-15T01:58:42;87141.40;;;22.80
76394;BMP180;65216;51.090;-115.352;2024-02-15T02:01:09;87154.00;;;22.80
76394;BMP180;65216;51.090;-115.352;2024-02-15T02:03:38;87141.40;;;22.72
76394;BMP180;65216;51.090;-115.352;2024-02-15T02:06:05;87144.00;;;22.70
76394;BMP180;65216;51.090;-115.352;2024-02-15T02:08:33;87157.00;;;22.70
76394;BMP180;65216;51.090;-115.352;2024-02-15T02:11:00;87173.40;;;22.70
76394;BMP180;65216;51.090;-115.352;2024-02-15T02:13:28;87164.00;;;22.70
76394;BMP180;65216;51.090;-115.352;2024-02-15T02:15:55;87160.60;;;22.70
76394;BMP180;65216;51.090;-115.352;2024-02-15T02:18:23;87177.20;;;22.70
76394;BMP180;65216;51.090;-115.352;2024-02-15T02:20:53;87158.60;;;22.70
76394;BMP180;65216;51.090;-115.352;2024-02-15T02:23:26;87169.60;;;22.70
76394;BMP180;65216;51.090;-115.352;2024-02-15T02:25:54;87166.40;;;22.70
76394;BMP180;65216;51.090;-115.352;2024-02-15T02:28:22;87171.80;;;22.70
76394;BMP180;65216;51.090;-115.352;2024-02-15T02:30:49;87176.60;;;22.70
76394;BMP180;65216;51.090;-115.352;2024-02-15T02:33:16;87183.80;;;22.70
76394;BMP180;65216;51.090;-115.352;2024-02-15T02:35:48;87177.40;;;22.60
76394;BMP180;65216;51.090;-115.352;2024-02-15T02:38:15;87173.40;;;22.60
76394;BMP180;65216;51.090;-115.352;2024-02-15T02:40:44;87188.20;;;22.62
76394;BMP180;65216;51.090;-115.352;2024-02-15T02:43:11;87175.40;;;22.64
76394;BMP180;65216;51.090;-115.352;2024-02-15T02:45:42;87186.20;;;22.60
76394;BMP180;65216;51.090;-115.352;2024-02-15T02:48:09;87189.60;;;22.60
76394;BMP180;65216;51.090;-115.352;2024-02-15T02:50:36;87194.40;;;22.60
76394;BMP180;65216;51.090;-115.352;2024-02-15T02:53:03;87188.20;;;22.60
76394;BMP180;65216;51.090;-115.352;2024-02-15T02:55:32;87189.40;;;22.60
76394;BMP180;65216;51.090;-115.352;2024-02-15T02:57:58;87193.40;;;22.60
76394;BMP180;65216;51.090;-115.352;2024-02-15T03:00:26;87192.00;;;22.60
76394;BMP180;65216;51.090;-115.352;2024-02-15T03:02:53;87199.80;;;22.66
76394;BMP180;65216;51.090;-115.352;2024-02-15T03:05:22;87194.40;;;22.60
76394;BMP180;65216;51.090;-115.352;2024-02-15T03:07:49;87211.00;;;22.64
76394;BMP180;65216;51.090;-115.352;2024-02-15T03:10:20;87204.40;;;22.60
76394;BMP180;65216;51.090;-115.352;2024-02-15T03:12:47;87203.20;;;22.60
76394;BMP180;65216;51.090;-115.352;2024-02-15T03:15:14;87212.00;;;22.60
76394;BMP180;65216;51.090;-115.352;2024-02-15T03:17:43;87205.20;;;22.60
76394;BMP180;65216;51.090;-115.352;2024-02-15T03:20:11;87220.40;;;22.60
76394;BMP180;65216;51.090;-115.352;2024-02-15T03:22:55;87210.20;;;22.60
76394;BMP180;65216;51.090;-115.352;2024-02-15T03:25:23;87217.40;;;22.60
76394;BMP180;65216;51.090;-115.352;2024-02-15T03:27:55;87216.80;;;22.60
76394;BMP180;65216;51.090;-115.352;2024-02-15T03:30:25;87202.80;;;22.60
76394;BMP180;65216;51.090;-115.352;2024-02-15T03:32:53;87216.40;;;22.60
76394;BMP180;65216;51.090;-115.352;2024-02-15T03:35:23;87208.80;;;22.60
76394;BMP180;65216;51.090;-115.352;2024-02-15T03:37:52;87215.80;;;22.54
76394;BMP180;65216;51.090;-115.352;2024-02-15T03:40:22;87222.80;;;22.50
76394;BMP180;65216;51.090;-115.352;2024-02-15T03:42:53;87209.40;;;22.50
76394;BMP180;65216;51.090;-115.352;2024-02-15T03:45:23;87214.80;;;22.50
76394;BMP180;65216;51.090;-115.352;2024-02-15T03:47:57;87220.20;;;22.50
76394;BMP180;65216;51.090;-115.352;2024-02-15T03:50:27;87225.60;;;22.50
76394;BMP180;65216;51.090;-115.352;2024-02-15T03:52:55;87230.20;;;22.50
76394;BMP180;65216;51.090;-115.352;2024-02-15T03:55:22;87225.00;;;22.50
76394;BMP180;65216;51.090;-115.352;2024-02-15T03:57:51;87225.60;;;22.50
76394;BMP180;65216;51.090;-115.352;2024-02-15T04:00:21;87226.60;;;22.46
76394;BMP180;65216;51.090;-115.352;2024-02-15T04:02:48;87219.60;;;22.48
76394;BMP180;65216;51.090;-115.352;2024-02-15T04:05:15;87223.80;;;22.42
76394;BMP180;65216;51.090;-115.352;2024-02-15T04:07:45;87231.00;;;22.48
76394;BMP180;65216;51.090;-115.352;2024-02-15T04:10:14;87236.20;;;22.44
76394;BMP180;65216;51.090;-115.352;2024-02-15T04:12:41;87232.40;;;22.40
76394;BMP180;65216;51.090;-115.352;2024-02-15T04:15:10;87245.60;;;22.40
76394;BMP180;65216;51.090;-115.352;2024-02-15T04:17:45;87250.60;;;22.40
76394;BMP180;65216;51.090;-115.352;2024-02-15T04:20:12;87250.40;;;22.40
76394;BMP180;65216;51.090;-115.352;2024-02-15T04:22:41;87242.40;;;22.40
76394;BMP180;65216;51.090;-115.352;2024-02-15T04:25:10;87246.60;;;22.40
76394;BMP180;65216;51.090;-115.352;2024-02-15T04:27:37;87251.80;;;22.42
76394;BMP180;65216;51.090;-115.352;2024-02-15T04:30:04;87243.80;;;22.40
76394;BMP180;65216;51.090;-115.352;2024-02-15T04:32:36;87246.20;;;22.40
76394;BMP180;65216;51.090;-115.352;2024-02-15T04:35:03;87244.00;;;22.40
76394;BMP180;65216;51.090;-115.352;2024-02-15T04:37:31;87252.40;;;22.40
76394;BMP180;65216;51.090;-115.352;2024-02-15T04:40:01;87259.60;;;22.40
76394;BMP180;65216;51.090;-115.352;2024-02-15T04:42:34;87262.80;;;22.40
76394;BMP180;65216;51.090;-115.352;2024-02-15T04:45:05;87266.80;;;22.40
76394;BMP180;65216;51.090;-115.352;2024-02-15T04:47:35;87266.60;;;22.40
76394;BMP180;65216;51.090;-115.352;2024-02-15T04:50:02;87262.20;;;22.40
76394;BMP180;65216;51.090;-115.352;2024-02-15T04:52:32;87266.00;;;22.40
76394;BMP180;65216;51.090;-115.352;2024-02-15T04:54:59;87263.80;;;22.40
76394;BMP180;65216;51.090;-115.352;2024-02-15T04:57:26;87263.40;;;22.40
76394;BMP180;65216;51.090;-115.352;2024-02-15T04:59:56;87259.60;;;22.40
76394;BMP180;65216;51.090;-115.352;2024-02-15T05:02:26;87265.80;;;22.40
76394;BMP180;65216;51.090;-115.352;2024-02-15T05:04:52;87271.60;;;22.40
76394;BMP180;65216;51.090;-115.352;2024-02-15T05:07:23;87269.80;;;22.40
76394;BMP180;65216;51.090;-115.352;2024-02-15T05:09:50;87276.00;;;22.40
76394;BMP180;65216;51.090;-115.352;2024-02-15T05:12:24;87273.40;;;22.40
76394;BMP180;65216;51.090;-115.352;2024-02-15T05:14:51;87276.40;;;22.40
76394;BMP180;65216;51.090;-115.352;2024-02-15T05:17:21;87272.80;;;22.30
76394;BMP180;65216;51.090;-115.352;2024-02-15T05:19:49;87274.80;;;22.30
76394;BMP180;65216;51.090;-115.352;2024-02-15T05:22:16;87273.40;;;22.30
76394;BMP180;65216;51.090;-115.352;2024-02-15T05:24:45;87269.40;;;22.30
76394;BMP180;65216;51.090;-115.352;2024-02-15T05:27:14;87267.00;;;22.30
76394;BMP180;65216;51.090;-115.352;2024-02-15T05:29:42;87266.00;;;22.26
76394;BMP180;65216;51.090;-115.352;2024-02-15T05:32:12;87264.80;;;22.20
76394;BMP180;65216;51.090;-115.352;2024-02-15T05:34:41;87266.80;;;22.20
76394;BMP180;65216;51.090;-115.352;2024-02-15T05:37:08;87263.80;;;22.20
76394;BMP180;65216;51.090;-115.352;2024-02-15T05:39:36;87262.00;;;22.20
76394;BMP180;65216;51.090;-115.352;2024-02-15T05:42:06;87263.20;;;22.20
76394;BMP180;65216;51.090;-115.352;2024-02-15T05:44:33;87261.40;;;22.20
76394;BMP180;65216;51.090;-115.352;2024-02-15T05:47:01;87256.40;;;22.20
76394;BMP180;65216;51.090;-115.352;2024-02-15T05:49:28;87262.40;;;22.20
76394;BMP180;65216;51.090;-115.352;2024-02-15T05:51:57;87264.60;;;22.20
76394;BMP180;65216;51.090;-115.352;2024-02-15T05:54:23;87264.60;;;22.10
76394;BMP180;65216;51.090;-115.352;2024-02-15T05:56:51;87264.20;;;22.10
76394;BMP180;65216;51.090;-115.352;2024-02-15T05:59:20;87263.00;;;22.10
76394;BMP180;65216;51.090;-115.352;2024-02-15T06:01:48;87263.20;;;22.10
76394;BMP180;65216;51.090;-115.352;2024-02-15T06:04:15;87259.60;;;22.10
76394;BMP180;65216;51.090;-115.352;2024-02-15T06:06:46;87259.80;;;22.10
76394;BMP180;65216;51.090;-115.352;2024-02-15T06:09:17;87251.00;;;22.10
76394;BMP180;65216;51.090;-115.352;2024-02-15T06:11:48;87248.40;;;22.10
76394;BMP180;65216;51.090;-115.352;2024-02-15T06:14:17;87251.60;;;22.10
76394;BMP180;65216;51.090;-115.352;2024-02-15T06:16:44;87257.00;;;22.02
76394;BMP180;65216;51.090;-115.352;2024-02-15T06:19:11;87254.00;;;22.10
76394;BMP180;65216;51.090;-115.352;2024-02-15T06:21:38;87250.80;;;22.10
76394;BMP180;65216;51.090;-115.352;2024-02-15T06:24:05;87252.20;;;22.06
76394;BMP180;65216;51.090;-115.352;2024-02-15T06:26:32;87247.40;;;22.02
76394;BMP180;65216;51.090;-115.352;2024-02-15T06:29:00;87244.20;;;22.08
76394;BMP180;65216;51.090;-115.352;2024-02-15T06:31:45;87243.60;;;22.10
76394;BMP180;65216;51.090;-115.352;2024-02-15T06:34:31;87244.80;;;22.00
76394;BMP180;65216;51.090;-115.352;2024-02-15T06:37:37;87243.40;;;22.00
76394;BMP180;65216;51.090;-115.352;2024-02-15T06:40:26;87246.40;;;22.00
76394;BMP180;65216;51.090;-115.352;2024-02-15T06:42:53;87248.40;;;22.00
76394;BMP180;65216;51.090;-115.352;2024-02-15T06:45:20;87245.40;;;22.00
76394;BMP180;65216;51.090;-115.352;2024-02-15T06:47:50;87238.20;;;22.00
76394;BMP180;65216;51.090;-115.352;2024-02-15T06:50:17;87232.60;;;22.00
76394;BMP180;65216;51.090;-115.352;2024-02-15T06:52:44;87232.20;;;22.00
76394;BMP180;65216;51.090;-115.352;2024-02-15T06:55:15;87233.60;;;22.00
76394;BMP180;65216;51.090;-115.352;2024-02-15T06:57:43;87231.20;;;22.00
76394;BMP180;65216;51.090;-115.352;2024-02-15T07:00:11;87237.00;;;22.00
76394;BMP180;65216;51.090;-115.352;2024-02-15T07:02:42;87239.80;;;22.00
76394;BMP180;65216;51.090;-115.352;2024-02-15T07:05:10;87243.20;;;21.96
76394;BMP180;65216;51.090;-115.352;2024-02-15T07:07:38;87245.40;;;21.90
76394;BMP180;65216;51.090;-115.352;2024-02-15T07:10:06;87245.00;;;21.90
76394;BMP180;65216;51.090;-115.352;2024-02-15T07:12:33;87244.80;;;21.92
76394;BMP180;65216;51.090;-115.352;2024-02-15T07:15:00;87243.00;;;21.90
76394;BMP180;65216;51.090;-115.352;2024-02-15T07:17:29;87245.40;;;21.90
76394;BMP180;65216;51.090;-115.352;2024-02-15T07:19:56;87245.80;;;21.90
76394;BMP180;65216;51.090;-115.352;2024-02-15T07:22:25;87242.20;;;21.90
76394;BMP180;65216;51.090;-115.352;2024-02-15T07:24:52;87240.80;;;21.90
76394;BMP180;65216;51.090;-115.352;2024-02-15T07:27:18;87240.40;;;21.90
76394;BMP180;65216;51.090;-115.352;2024-02-15T07:29:49;87244.00;;;21.90
76394;BMP180;65216;51.090;-115.352;2024-02-15T07:32:18;87246.40;;;21.90
76394;BMP180;65216;51.090;-115.352;2024-02-15T07:34:46;87240.20;;;21.90
76394;BMP180;65216;51.090;-115.352;2024-02-15T07:37:14;87241.00;;;21.90
76394;BMP180;65216;51.090;-115.352;2024-02-15T07:39:42;87241.60;;;21.90
76394;BMP180;65216;51.090;-115.352;2024-02-15T07:42:09;87241.40;;;21.90
76394;BMP180;65216;51.090;-115.352;2024-02-15T07:44:36;87243.00;;;21.90
76394;BMP180;65216;51.090;-115.352;2024-02-15T07:47:06;87245.00;;;21.90
76394;BMP180;65216;51.090;-115.352;2024-02-15T07:49:33;87246.00;;;21.90
76394;BMP180;65216;51.090;-115.352;2024-02-15T07:52:01;87244.00;;;21.90
76394;BMP180;65216;51.090;-115.352;2024-02-15T07:54:27;87246.80;;;21.90
76394;BMP180;65216;51.090;-115.352;2024-02-15T07:56:56;87246.60;;;21.90
76394;BMP180;65216;51.090;-115.352;2024-02-15T07:59:24;87249.40;;;21.90
76394;BMP180;65216;51.090;-115.352;2024-02-15T08:01:51;87250.40;;;21.90
76394;BMP180;65216;51.090;-115.352;2024-02-15T08:04:19;87253.20;;;21.90
76394;BMP180;65216;51.090;-115.352;2024-02-15T08:06:47;87251.40;;;21.90
76394;BMP180;65216;51.090;-115.352;2024-02-15T08:09:18;87251.80;;;21.90
76394;BMP180;65216;51.090;-115.352;2024-02-15T08:11:49;87256.00;;;21.90
76394;BMP180;65216;51.090;-115.352;2024-02-15T08:14:17;87253.20;;;21.90
76394;BMP180;65216;51.090;-115.352;2024-02-15T08:16:44;87250.60;;;21.80
76394;BMP180;65216;51.090;-115.352;2024-02-15T08:19:10;87252.40;;;21.80
76394;BMP180;65216;51.090;-115.352;2024-02-15T08:21:40;87249.00;;;21.82
76394;BMP180;65216;51.090;-115.352;2024-02-15T08:24:12;87257.80;;;21.80
76394;BMP180;65216;51.090;-115.352;2024-02-15T08:26:41;87254.40;;;21.80
76394;BMP180;65216;51.090;-115.352;2024-02-15T08:29:09;87256.00;;;21.80
76394;BMP180;65216;51.090;-115.352;2024-02-15T08:31:36;87255.40;;;21.80
76394;BMP180;65216;51.090;-115.352;2024-02-15T08:34:03;87260.20;;;21.80
76394;BMP180;65216;51.090;-115.352;2024-02-15T08:36:39;87253.20;;;21.80
76394;BMP180;65216;51.090;-115.352;2024-02-15T08:39:06;87261.40;;;21.80
76394;BMP180;65216;51.090;-115.352;2024-02-15T08:41:34;87263.80;;;21.80
76394;BMP180;65216;51.090;-115.352;2024-02-15T08:44:01;87262.00;;;21.80
76394;BMP180;65216;51.090;-115.352;2024-02-15T08:46:32;87264.00;;;21.80
76394;BMP180;65216;51.090;-115.352;2024-02-15T08:48:59;87261.80;;;21.80
76394;BMP180;65216;51.090;-115.352;2024-02-15T08:51:27;87263.40;;;21.80
76394;BMP180;65216;51.090;-115.352;2024-02-15T08:53:53;87270.40;;;21.80
76394;BMP180;65216;51.090;-115.352;2024-02-15T08:56:22;87273.20;;;21.80
76394;BMP180;65216;51.090;-115.352;2024-02-15T08:58:49;87272.60;;;21.80
76394;BMP180;65216;51.090;-115.352;2024-02-15T09:01:20;87272.80;;;21.80
76394;BMP180;65216;51.090;-115.352;2024-02-15T09:03:47;87275.40;;;21.80
76394;BMP180;65216;51.090;-115.352;2024-02-15T09:06:14;87274.00;;;21.80
76394;BMP180;65216;51.090;-115.352;2024-02-15T09:08:41;87278.40;;;21.78
76394;BMP180;65216;51.090;-115.352;2024-02-15T09:11:08;87281.20;;;21.76
76394;BMP180;65216;51.090;-115.352;2024-02-15T09:13:38;87282.80;;;21.78
76394;BMP180;65216;51.090;-115.352;2024-02-15T09:16:06;87283.40;;;21.78
76394;BMP180;65216;51.090;-115.352;2024-02-15T09:18:32;87284.60;;;21.70
76394;BMP180;65216;51.090;-115.352;2024-02-15T09:20:59;87286.80;;;21.70
76394;BMP180;65216;51.090;-115.352;2024-02-15T09:23:26;87286.20;;;21.70
76394;BMP180;65216;51.090;-115.352;2024-02-15T09:25:53;87292.80;;;21.70
76394;BMP180;65216;51.090;-115.352;2024-02-15T09:28:22;87298.00;;;21.70
76394;BMP180;65216;51.090;-115.352;2024-02-15T09:30:50;87297.20;;;21.70
76394;BMP180;65216;51.090;-115.352;2024-02-15T09:33:23;87301.00;;;21.70
76394;BMP180;65216;51.090;-115.352;2024-02-15T09:35:49;87304.40;;;21.70
76394;BMP180;65216;51.090;-115.352;2024-02-15T09:38:16;87304.40;;;21.70
76394;BMP180;65216;51.090;-115.352;2024-02-15T09:40:49;87303.00;;;21.70
76394;BMP180;65216;51.090;-115.352;2024-02-15T09:43:16;87306.60;;;21.70
76394;BMP180;65216;51.090;-115.352;2024-02-15T09:45:43;87306.00;;;21.70
76394;BMP180;65216;51.090;-115.352;2024-02-15T09:48:11;87306.20;;;21.70
76394;BMP180;65216;51.090;-115.352;2024-02-15T09:50:45;87309.20;;;21.70
76394;BMP180;65216;51.090;-115.352;2024-02-15T09:53:13;87312.40;;;21.70
76394;BMP180;65216;51.090;-115.352;2024-02-15T09:55:42;87313.60;;;21.70
76394;BMP180;65216;51.090;-115.352;2024-02-15T09:58:09;87316.60;;;21.70
76394;BMP180;65216;51.090;-115.352;2024-02-15T10:00:36;87314.20;;;21.70
76394;BMP180;65216;51.090;-115.352;2024-02-15T10:03:06;87320.40;;;21.70
76394;BMP180;65216;51.090;-115.352;2024-02-15T10:05:35;87320.80;;;21.70
76394;BMP180;65216;51.090;-115.352;2024-02-15T10:08:06;87318.20;;;21.70
76394;BMP180;65216;51.090;-115.352;2024-02-15T10:10:33;87316.60;;;21.70
76394;BMP180;65216;51.090;-115.352;2024-02-15T10:13:01;87313.40;;;21.70
76394;BMP180;65216;51.090;-115.352;2024-02-15T10:18:00;87315.20;;;21.70
76394;BMP180;65216;51.090;-115.352;2024-02-15T10:20:27;87315.80;;;21.70
76394;BMP180;65216;51.090;-115.352;2024-02-15T10:23:13;87313.80;;;21.70
76394;BMP180;65216;51.090;-115.352;2024-02-15T10:25:47;87312.00;;;21.70
76394;BMP180;65216;51.090;-115.352;2024-02-15T10:28:21;87312.80;;;21.70
76394;BMP180;65216;51.090;-115.352;2024-02-15T10:30:50;87315.00;;;21.70
76394;BMP180;65216;51.090;-115.352;2024-02-15T10:33:34;87314.60;;;21.70
76394;BMP180;65216;51.090;-115.352;2024-02-15T10:36:11;87318.00;;;21.70
76394;BMP180;65216;51.090;-115.352;2024-02-15T10:38:39;87324.80;;;21.70
76394;BMP180;65216;51.090;-115.352;2024-02-15T10:41:09;87324.40;;;21.70
76394;BMP180;65216;51.090;-115.352;2024-02-15T10:43:37;87320.00;;;21.70
76394;BMP180;65216;51.090;-115.352;2024-02-15T10:46:08;87321.00;;;21.70
76394;BMP180;65216;51.090;-115.352;2024-02-15T10:48:37;87322.40;;;21.70
76394;BMP180;65216;51.090;-115.352;2024-02-15T10:51:10;87324.40;;;21.70
76394;BMP180;65216;51.090;-115.352;2024-02-15T10:53:47;87324.00;;;21.70
76394;BMP180;65216;51.090;-115.352;2024-02-15T10:56:24;87319.00;;;21.70
76394;BMP180;65216;51.090;-115.352;2024-02-15T11:01:42;87320.20;;;21.70
76394;BMP180;65216;51.090;-115.352;2024-02-15T11:04:15;87324.40;;;21.70
76394;BMP180;65216;51.090;-115.352;2024-02-15T11:06:43;87329.00;;;21.70
76394;BMP180;65216;51.090;-115.352;2024-02-15T11:09:12;87325.60;;;21.70
76394;BMP180;65216;51.090;-115.352;2024-02-15T11:11:42;87328.60;;;21.70
76394;BMP180;65216;51.090;-115.352;2024-02-15T11:14:31;87328.00;;;21.70
76394;BMP180;65216;51.090;-115.352;2024-02-15T11:17:01;87331.20;;;21.70
76394;BMP180;65216;51.090;-115.352;2024-02-15T11:22:15;87333.40;;;21.70
76394;BMP180;65216;51.090;-115.352;2024-02-15T11:24:52;87331.00;;;21.72
76394;BMP180;65216;51.090;-115.352;2024-02-15T11:27:31;87333.60;;;21.76
76394;BMP180;65216;51.090;-115.352;2024-02-15T11:29:59;87331.00;;;21.78
76394;BMP180;65216;51.090;-115.352;2024-02-15T11:40:25;87338.40;;;21.80
76394;BMP180;65216;51.090;-115.352;2024-02-15T11:43:00;87341.00;;;21.80
76394;BMP180;65216;51.090;-115.352;2024-02-15T11:45:28;87348.20;;;21.70
76394;BMP180;65216;51.090;-115.352;2024-02-15T11:48:10;87343.60;;;21.70
76394;BMP180;65216;51.090;-115.352;2024-02-15T11:50:43;87346.40;;;21.70
76394;BMP180;65216;51.090;-115.352;2024-02-15T11:53:11;87343.60;;;21.70
76394;BMP180;65216;51.090;-115.352;2024-02-15T11:55:39;87346.00;;;21.70
76394;BMP180;65216;51.090;-115.352;2024-02-15T11:58:08;87346.20;;;21.62
76394;BMP180;65216;51.090;-115.352;2024-02-15T12:00:39;87348.60;;;21.60
76394;BMP180;65216;51.090;-115.352;2024-02-15T12:03:25;87350.40;;;21.60
76394;BMP180;65216;51.090;-115.352;2024-02-15T12:06:11;87355.00;;;21.60
76394;BMP180;65216;51.090;-115.352;2024-02-15T12:08:56;87356.40;;;21.60
76394;BMP180;65216;51.090;-115.352;2024-02-15T12:11:41;87361.40;;;21.60
76394;BMP180;65216;51.090;-115.352;2024-02-15T12:14:26;87362.40;;;21.60
76394;BMP180;65216;51.090;-115.352;2024-02-15T12:17:13;87360.20;;;21.60
76394;BMP180;65216;51.090;-115.352;2024-02-15T12:20:04;87366.80;;;21.58
76394;BMP180;65216;51.090;-115.352;2024-02-15T12:22:44;87366.20;;;21.54
76394;BMP180;65216;51.090;-115.352;2024-02-15T12:25:16;87364.20;;;21.54
76394;BMP180;65216;51.090;-115.352;2024-02-15T12:27:58;87369.00;;;21.58
76394;BMP180;65216;51.090;-115.352;2024-02-15T12:30:34;87371.00;;;21.54
76394;BMP180;65216;51.090;-115.352;2024-02-15T12:33:15;87376.20;;;21.50
76394;BMP180;65216;51.090;-115.352;2024-02-15T12:35:46;87378.60;;;21.50
76394;BMP180;65216;51.090;-115.352;2024-02-15T12:38:13;87379.20;;;21.50
76394;BMP180;65216;51.090;-115.352;2024-02-15T12:40:46;87381.80;;;21.50
76394;BMP180;65216;51.090;-115.352;2024-02-15T12:43:12;87390.00;;;21.52
76394;BMP180;65216;51.090;-115.352;2024-02-15T12:45:41;87396.20;;;21.50
76394;BMP180;65216;51.090;-115.352;2024-02-15T12:48:09;87399.40;;;21.50
76394;BMP180;65216;51.090;-115.352;2024-02-15T12:50:37;87399.00;;;21.52
76394;BMP180;65216;51.090;-115.352;2024-02-15T12:53:04;87398.60;;;21.58
76394;BMP180;65216;51.090;-115.352;2024-02-15T12:55:34;87401.40;;;21.54
76394;BMP180;65216;51.090;-115.352;2024-02-15T12:58:03;87406.40;;;21.58
76394;BMP180;65216;51.090;-115.352;2024-02-15T13:00:31;87415.80;;;21.60
76394;BMP180;65216;51.090;-115.352;2024-02-15T13:03:02;87411.20;;;21.60
76394;BMP180;65216;51.090;-115.352;2024-02-15T13:05:33;87408.00;;;21.60
76394;BMP180;65216;51.090;-115.352;2024-02-15T13:08:00;87418.80;;;21.58
76394;BMP180;65216;51.090;-115.352;2024-02-15T13:10:37;87411.00;;;21.60
76394;BMP180;65216;51.090;-115.352;2024-02-15T13:13:05;87417.80;;;21.58
76394;BMP180;65216;51.090;-115.352;2024-02-15T13:15:33;87418.00;;;21.60
76394;BMP180;65216;51.090;-115.352;2024-02-15T13:18:01;87417.00;;;21.60
76394;BMP180;65216;51.090;-115.352;2024-02-15T13:20:34;87415.60;;;21.60
76394;BMP180;65216;51.090;-115.352;2024-02-15T13:23:11;87413.60;;;21.50
76394;BMP180;65216;51.090;-115.352;2024-02-15T13:25:45;87415.20;;;21.50
76394;BMP180;65216;51.090;-115.352;2024-02-15T13:28:12;87417.20;;;21.50
76394;BMP180;65216;51.090;-115.352;2024-02-15T13:30:39;87413.80;;;21.50
76394;BMP180;65216;51.090;-115.352;2024-02-15T13:33:07;87418.20;;;21.50
76394;BMP180;65216;51.090;-115.352;2024-02-15T13:35:34;87417.40;;;21.50
76394;BMP180;65216;51.090;-115.352;2024-02-15T13:38:02;87422.20;;;21.50
76394;BMP180;65216;51.090;-115.352;2024-02-15T13:40:32;87432.00;;;21.50
76394;BMP180;65216;51.090;-115.352;2024-02-15T13:43:00;87429.80;;;21.50
76394;BMP180;65216;51.090;-115.352;2024-02-15T13:45:46;87432.40;;;21.50
76394;BMP180;65216;51.090;-115.352;2024-02-15T13:48:15;87436.40;;;21.50
76394;BMP180;65216;51.090;-115.352;2024-02-15T13:50:42;87441.80;;;21.50
76394;BMP180;65216;51.090;-115.352;2024-02-15T13:53:10;87441.20;;;21.50
76394;BMP180;65216;51.090;-115.352;2024-02-15T13:55:39;87445.80;;;21.50
76394;BMP180;65216;51.090;-115.352;2024-02-15T13:58:06;87446.20;;;21.50
76394;BMP180;65216;51.090;-115.352;2024-02-15T14:00:34;87449.00;;;21.50